Time;durP1;ratioP1;P1;durP2;ratioP2;P2;SDS_P1;SDS_P2;PMS_P1;PMS_P2;Temp;Humidity;BMP_temperature;BMP_pressure;BME280_temperature;BME280_humidity;BME280_pressure;Samples;Min_cycle;Max_cycle;Signal;HPM_P1;HPM_P2
2022/01/24 00:01:37;;;;;;;17.33;13.13;;;6.20;99.90;;;;;;5044308;28;20050;-64
2022/01/24 00:04:03;;;;;;;18.00;13.15;;;6.20;99.90;;;;;;5027988;28;20133;-63
2022/01/24 00:06:30;;;;;;;20.95;13.25;;;6.20;99.90;;;;;;5040757;28;20057;-64
2022/01/24 00:08:56;;;;;;;15.95;12.63;;;6.20;99.90;;;;;;5048226;28;20047;-64
2022/01/24 00:11:27;;;;;;;17.27;11.50;;;6.20;99.90;;;;;;5014017;28;20042;-62
2022/01/24 00:26:56;;;;;;;13.55;10.32;;;6.10;99.90;;;;;;5050452;28;20061;-64
2022/01/24 00:29:25;;;;;;;14.13;10.13;;;6.10;99.90;;;;;;5046170;28;20049;-63
2022/01/24 00:31:53;;;;;;;18.73;10.63;;;6.10;99.90;;;;;;5024049;28;20046;-64
2022/01/24 00:34:19;;;;;;;13.75;10.07;;;6.10;99.90;;;;;;5030350;28;20052;-63
2022/01/24 00:36:48;;;;;;;13.18;9.70;;;6.10;99.90;;;;;;4986968;28;20046;-64
2022/01/24 00:39:15;;;;;;;13.68;9.90;;;6.10;99.90;;;;;;5039119;28;20039;-63
2022/01/24 00:46:59;;;;;;;12.20;8.88;;;6.10;99.90;;;;;;5042168;28;20521;-64
2022/01/24 00:49:53;;;;;;;11.25;8.57;;;6.10;99.90;;;;;;5037013;28;20104;-63
2022/01/24 00:54:57;;;;;;;10.90;7.63;;;6.00;99.90;;;;;;4980206;28;20042;-63
2022/01/24 00:57:22;;;;;;;11.50;8.95;;;6.00;99.90;;;;;;5048905;28;20374;-64
2022/01/24 00:59:49;;;;;;;12.23;8.32;;;6.10;99.90;;;;;;5043787;28;20042;-64
2022/01/24 01:02:16;;;;;;;11.05;8.23;;;6.00;99.90;;;;;;5041443;28;20046;-62
2022/01/24 01:07:27;;;;;;;11.15;8.00;;;6.00;99.90;;;;;;5053165;28;20403;-64
2022/01/24 01:18:15;;;;;;;10.13;7.35;;;6.00;99.90;;;;;;5046590;28;20424;-64
2022/01/24 01:21:18;;;;;;;11.90;7.30;;;6.00;99.90;;;;;;5052051;28;20043;-61
2022/01/24 01:23:42;;;;;;;9.20;7.05;;;6.00;99.90;;;;;;5053222;28;20042;-62
2022/01/24 01:26:21;;;;;;;10.35;7.38;;;6.00;99.90;;;;;;5051201;28;20457;-63
2022/01/24 01:28:50;;;;;;;10.05;7.70;;;6.00;99.90;;;;;;4980329;28;20051;-64
2022/01/24 01:31:29;;;;;;;9.57;7.45;;;6.00;99.90;;;;;;5055016;28;20046;-64
2022/01/24 01:34:05;;;;;;;11.75;8.13;;;5.90;99.90;;;;;;5033275;28;20034;-62
2022/01/24 01:55:35;;;;;;;8.98;6.60;;;5.90;99.90;;;;;;5046027;28;20598;-61
2022/01/24 01:58:02;;;;;;;9.57;6.38;;;5.90;99.90;;;;;;5043752;28;20047;-63
2022/01/24 02:00:28;;;;;;;9.20;6.93;;;5.90;99.90;;;;;;5028312;28;20421;-63
2022/01/24 02:02:53;;;;;;;10.07;6.82;;;5.90;99.90;;;;;;5042518;28;20129;-63
2022/01/24 02:05:20;;;;;;;9.30;6.78;;;5.90;99.90;;;;;;5020311;28;20121;-61
2022/01/24 02:07:47;;;;;;;8.38;6.47;;;5.90;99.90;;;;;;5041281;28;20408;-62
2022/01/24 02:10:14;;;;;;;10.15;6.22;;;5.90;99.90;;;;;;5048312;28;20042;-63
2022/01/24 02:12:39;;;;;;;7.53;5.78;;;5.90;99.90;;;;;;5032443;28;20491;-61
2022/01/24 02:15:06;;;;;;;8.57;6.53;;;5.80;99.90;;;;;;5045936;28;20041;-63
2022/01/24 02:17:46;;;;;;;8.60;6.30;;;5.80;99.90;;;;;;5035277;28;20046;-63
2022/01/24 02:25:57;;;;;;;8.57;6.35;;;5.80;99.90;;;;;;5048286;28;20051;-63
2022/01/24 02:28:26;;;;;;;8.82;6.63;;;5.80;99.90;;;;;;5049642;28;20124;-65
2022/01/24 02:33:37;;;;;;;7.53;6.03;;;5.80;99.90;;;;;;5045186;28;20042;-63
2022/01/24 02:36:03;;;;;;;8.43;6.30;;;5.80;99.90;;;;;;4977717;28;20577;-63
2022/01/24 02:49:13;;;;;;;9.68;7.03;;;5.80;99.90;;;;;;5043035;28;20104;-64
2022/01/24 02:54:17;;;;;;;10.65;7.00;;;5.80;99.90;;;;;;5036841;28;20046;-63
2022/01/24 02:56:43;;;;;;;9.35;6.53;;;5.70;99.90;;;;;;5042344;28;20040;-65
2022/01/24 02:59:09;;;;;;;8.18;6.47;;;5.70;99.90;;;;;;5034433;28;20487;-64
2022/01/24 03:01:34;;;;;;;9.60;7.18;;;5.70;99.90;;;;;;5052192;28;20284;-64
2022/01/24 03:04:00;;;;;;;10.13;7.20;;;5.70;99.90;;;;;;5052951;28;20045;-64
2022/01/24 03:06:26;;;;;;;10.20;6.28;;;5.70;99.90;;;;;;5047533;28;20081;-65
2022/01/24 03:08:52;;;;;;;8.75;6.80;;;5.70;99.90;;;;;;5032112;28;20038;-63
2022/01/24 03:11:17;;;;;;;9.25;6.68;;;5.70;99.90;;;;;;5038654;28;20038;-62
2022/01/24 03:13:43;;;;;;;9.10;6.38;;;5.70;99.90;;;;;;5052475;28;20074;-63
2022/01/24 03:16:09;;;;;;;7.38;5.97;;;5.70;99.90;;;;;;5047231;28;20128;-64
2022/01/24 03:18:34;;;;;;;8.60;6.60;;;5.70;99.90;;;;;;5048204;28;20492;-63
2022/01/24 03:21:01;;;;;;;9.57;6.70;;;5.70;99.90;;;;;;5032732;28;20054;-62
2022/01/24 03:23:27;;;;;;;10.30;7.13;;;5.70;99.90;;;;;;5052213;28;20099;-64
2022/01/24 03:25:54;;;;;;;9.85;7.53;;;5.70;99.90;;;;;;5029424;28;20046;-64
2022/01/24 03:28:20;;;;;;;11.25;7.32;;;5.80;99.90;;;;;;5034263;28;20073;-64
2022/01/24 03:30:46;;;;;;;9.15;7.07;;;5.70;99.90;;;;;;5040859;28;20043;-62
2022/01/24 03:33:12;;;;;;;9.93;7.43;;;5.70;99.90;;;;;;5031401;28;20061;-62
2022/01/24 03:35:40;;;;;;;9.40;7.13;;;5.70;99.90;;;;;;5050624;28;20030;-63
2022/01/24 03:38:06;;;;;;;22.40;7.53;;;5.70;99.90;;;;;;5046198;28;20042;-63
2022/01/24 03:40:32;;;;;;;11.18;7.00;;;5.70;99.90;;;;;;5041919;28;20057;-64
2022/01/24 03:42:58;;;;;;;8.93;6.95;;;5.70;99.90;;;;;;5044035;28;20042;-63
2022/01/24 03:45:42;;;;;;;9.98;7.05;;;5.70;99.90;;;;;;5047146;28;20042;-62
2022/01/24 03:48:22;;;;;;;9.05;6.65;;;5.70;99.90;;;;;;5025514;28;20104;-62
2022/01/24 03:50:48;;;;;;;8.20;6.57;;;5.70;99.90;;;;;;5042424;28;20124;-62
2022/01/24 03:53:13;;;;;;;9.38;7.40;;;5.70;99.90;;;;;;5034177;28;20559;-63
2022/01/24 03:55:39;;;;;;;8.95;6.95;;;5.70;99.90;;;;;;5046079;28;20055;-63
2022/01/24 03:58:05;;;;;;;12.23;7.13;;;5.70;99.90;;;;;;5036008;28;20397;-64
2022/01/24 04:00:30;;;;;;;11.68;7.70;;;5.70;99.90;;;;;;5044783;28;20049;-64
2022/01/24 04:02:57;;;;;;;10.80;7.40;;;5.70;99.90;;;;;;5055163;28;20603;-64
2022/01/24 04:05:23;;;;;;;11.38;8.10;;;5.70;99.90;;;;;;5045119;28;20045;-63
2022/01/24 04:07:48;;;;;;;10.77;7.88;;;5.70;99.90;;;;;;5036446;28;20037;-63
2022/01/24 04:10:18;;;;;;;10.50;7.40;;;5.70;99.90;;;;;;5052065;28;20049;-62
2022/01/24 04:12:44;;;;;;;10.20;7.50;;;5.70;99.90;;;;;;5044402;28;20034;-64
2022/01/24 04:17:47;;;;;;;9.13;7.13;;;5.70;99.90;;;;;;5052988;28;20265;-63
2022/01/24 04:23:00;;;;;;;12.07;8.23;;;5.70;99.90;;;;;;5048430;28;20403;-64
2022/01/24 04:25:26;;;;;;;11.38;8.48;;;5.60;99.90;;;;;;4984106;28;20107;-62
2022/01/24 04:27:55;;;;;;;15.25;8.88;;;5.70;99.90;;;;;;5038591;28;20483;-62
2022/01/24 04:30:21;;;;;;;13.07;8.60;;;5.70;99.90;;;;;;5045321;28;20041;-63
2022/01/24 04:32:47;;;;;;;11.95;8.70;;;5.70;99.90;;;;;;5046453;28;20040;-64
2022/01/24 04:35:13;;;;;;;12.27;9.07;;;5.70;99.90;;;;;;5051381;28;20385;-65
2022/01/24 04:37:39;;;;;;;10.48;7.65;;;5.70;99.90;;;;;;5034067;28;20496;-64
2022/01/24 04:40:06;;;;;;;12.25;9.15;;;5.60;99.90;;;;;;4989791;28;20037;-64
2022/01/24 04:42:49;;;;;;;11.80;8.93;;;5.60;99.90;;;;;;5041750;22;20077;-60
2022/01/24 04:53:09;;;;;;;11.00;8.13;;;5.60;99.90;;;;;;5023120;28;20264;-60
2022/01/24 04:55:35;;;;;;;12.82;8.95;;;5.60;99.90;;;;;;5006048;28;20041;-60
2022/01/24 04:58:01;;;;;;;13.07;9.18;;;5.60;99.90;;;;;;5011090;28;20049;-61
2022/01/24 05:00:27;;;;;;;12.18;8.98;;;5.60;99.90;;;;;;5014788;28;20120;-60
2022/01/24 05:02:52;;;;;;;13.27;9.10;;;5.60;99.90;;;;;;5015214;28;20073;-61
2022/01/24 05:05:20;;;;;;;14.73;8.45;;;5.60;99.90;;;;;;5014660;28;20048;-59
2022/01/24 05:07:47;;;;;;;10.95;8.25;;;5.60;99.90;;;;;;5028146;27;20110;-60
2022/01/24 05:10:30;;;;;;;10.73;7.93;;;5.60;99.90;;;;;;5006369;28;20088;-61
2022/01/24 05:23:41;;;;;;;15.20;9.70;;;5.60;99.90;;;;;;5010567;28;20309;-60
2022/01/24 05:26:08;;;;;;;13.02;9.80;;;5.50;99.90;;;;;;5010772;27;20030;-60
2022/01/24 05:28:35;;;;;;;12.57;8.38;;;5.50;99.90;;;;;;4999813;28;20499;-60
2022/01/24 05:31:01;;;;;;;13.52;9.65;;;5.50;99.90;;;;;;5013692;28;20050;-61
2022/01/24 05:33:28;;;;;;;13.68;9.18;;;5.60;99.90;;;;;;5021415;28;20034;-61
2022/01/24 05:35:54;;;;;;;14.57;9.90;;;5.60;99.90;;;;;;5006339;28;20067;-60
2022/01/24 05:38:22;;;;;;;17.63;9.25;;;5.60;99.90;;;;;;5026080;27;20329;-62
2022/01/24 05:40:48;;;;;;;15.20;10.32;;;5.60;99.90;;;;;;4995342;28;20065;-62
2022/01/24 05:43:14;;;;;;;14.63;9.65;;;5.60;99.90;;;;;;5007484;28;20128;-61
2022/01/24 05:45:41;;;;;;;13.98;9.10;;;5.60;99.90;;;;;;5024332;28;20116;-61
2022/01/24 05:48:08;;;;;;;15.68;9.35;;;5.60;99.90;;;;;;5009523;28;20041;-61
2022/01/24 05:50:34;;;;;;;13.27;9.43;;;5.60;99.90;;;;;;5014623;28;20040;-61
2022/01/24 05:53:00;;;;;;;14.77;9.90;;;5.60;99.90;;;;;;5013228;28;20032;-61
2022/01/24 05:55:25;;;;;;;12.38;7.78;;;5.60;99.90;;;;;;5019694;28;20499;-60
2022/01/24 05:57:54;;;;;;;13.50;9.57;;;5.60;99.90;;;;;;5016189;28;20534;-61
2022/01/24 06:00:21;;;;;;;15.23;10.38;;;5.60;99.90;;;;;;5016881;28;20037;-61
2022/01/24 06:02:47;;;;;;;17.05;9.80;;;5.60;99.90;;;;;;4993026;28;20045;-61
2022/01/24 06:05:13;;;;;;;15.77;10.30;;;5.60;99.90;;;;;;5017084;28;20422;-61
2022/01/24 06:07:38;;;;;;;14.07;9.73;;;5.60;99.90;;;;;;5026456;28;20494;-62
2022/01/24 06:10:06;;;;;;;14.65;10.38;;;5.50;99.90;;;;;;5020262;28;20483;-61
2022/01/24 06:12:32;;;;;;;13.85;8.98;;;5.50;99.90;;;;;;4980101;28;20041;-60
2022/01/24 06:14:58;;;;;;;12.02;8.30;;;5.50;99.90;;;;;;5001660;28;20376;-62
2022/01/24 06:17:24;;;;;;;14.07;10.32;;;5.60;99.90;;;;;;4973759;28;20049;-61
2022/01/24 06:19:50;;;;;;;15.63;10.63;;;5.60;99.90;;;;;;5007540;28;20042;-62
2022/01/24 06:22:16;;;;;;;16.35;11.38;;;5.50;99.90;;;;;;5012497;28;20040;-61
2022/01/24 06:24:41;;;;;;;17.13;11.52;;;5.50;99.90;;;;;;5007026;28;20041;-61
2022/01/24 06:27:07;;;;;;;13.48;9.35;;;5.50;99.90;;;;;;5017905;28;20041;-59
2022/01/24 06:29:33;;;;;;;16.60;9.95;;;5.50;99.90;;;;;;4993898;28;20089;-59
2022/01/24 06:31:59;;;;;;;13.60;9.63;;;5.50;99.90;;;;;;5005259;28;20561;-61
2022/01/24 06:34:25;;;;;;;17.45;11.65;;;5.60;99.90;;;;;;5012076;28;20124;-62
2022/01/24 06:36:50;;;;;;;14.45;10.18;;;5.60;99.90;;;;;;4984052;28;20041;-62
2022/01/24 06:39:17;;;;;;;14.68;11.05;;;5.60;99.90;;;;;;5016862;28;20116;-61
2022/01/24 06:41:51;;;;;;;13.88;10.07;;;5.60;99.90;;;;;;5019415;28;20043;-62
2022/01/24 06:44:16;;;;;;;16.80;10.48;;;5.60;99.90;;;;;;5020104;28;20037;-60
2022/01/24 06:46:44;;;;;;;13.80;9.63;;;5.60;99.90;;;;;;4996185;28;20044;-61
2022/01/24 06:49:10;;;;;;;18.00;11.80;;;5.60;99.90;;;;;;5046258;28;20046;-62
2022/01/24 06:51:36;;;;;;;16.45;11.35;;;5.50;99.90;;;;;;5014128;28;20033;-61
2022/01/24 06:54:02;;;;;;;17.52;11.23;;;5.60;99.90;;;;;;5022073;28;20503;-61
2022/01/24 06:56:28;;;;;;;17.40;10.90;;;5.50;99.90;;;;;;5000869;28;20710;-62
2022/01/24 06:58:54;;;;;;;17.38;10.38;;;5.60;99.90;;;;;;5014204;28;20359;-61
2022/01/24 07:01:19;;;;;;;16.73;10.93;;;5.50;99.90;;;;;;5007446;28;20045;-61
2022/01/24 07:03:45;;;;;;;17.42;11.80;;;5.50;99.90;;;;;;4990085;28;20048;-62
2022/01/24 07:06:11;;;;;;;18.63;12.63;;;5.60;99.90;;;;;;4993702;28;20049;-60
2022/01/24 07:08:36;;;;;;;17.60;12.35;;;5.50;99.90;;;;;;5001874;28;20136;-61
2022/01/24 07:11:02;;;;;;;17.52;11.60;;;5.50;99.90;;;;;;4994635;28;21258;-60
2022/01/24 07:13:28;;;;;;;17.25;11.52;;;5.60;99.90;;;;;;5032925;28;20071;-60
2022/01/24 07:16:00;;;;;;;19.30;13.80;;;5.60;99.90;;;;;;5011471;28;20489;-61
2022/01/24 07:20:55;;;;;;;16.17;11.00;;;5.60;99.90;;;;;;5011627;28;20041;-61
2022/01/24 07:23:21;;;;;;;14.50;9.73;;;5.60;99.90;;;;;;5011215;28;20096;-59
2022/01/24 07:25:46;;;;;;;19.67;12.32;;;5.60;99.90;;;;;;5018403;28;20484;-61
2022/01/24 07:28:14;;;;;;;19.13;12.90;;;5.60;99.90;;;;;;4989508;28;20061;-61
2022/01/24 07:30:40;;;;;;;17.52;12.60;;;5.60;99.90;;;;;;4984790;28;20080;-61
2022/01/24 07:33:06;;;;;;;16.27;11.20;;;5.60;99.90;;;;;;5010647;28;20506;-61
2022/01/24 07:35:33;;;;;;;18.52;12.57;;;5.60;99.90;;;;;;4996406;28;20045;-61
2022/01/24 07:37:58;;;;;;;18.95;12.25;;;5.60;99.90;;;;;;5006484;28;20497;-61
2022/01/24 07:40:24;;;;;;;18.67;13.27;;;5.60;99.90;;;;;;5003511;27;20042;-62
2022/01/24 07:43:08;;;;;;;19.63;12.85;;;5.50;99.90;;;;;;4966203;28;20072;-59
2022/01/24 07:45:35;;;;;;;19.10;12.75;;;5.60;99.90;;;;;;5001879;27;20507;-61
2022/01/24 07:48:01;;;;;;;17.38;11.60;;;5.50;99.90;;;;;;4981800;28;20056;-61
2022/01/24 07:50:27;;;;;;;15.18;11.25;;;5.50;99.90;;;;;;5015821;28;20052;-59
2022/01/24 07:52:55;;;;;;;20.20;14.02;;;5.50;99.90;;;;;;4967275;27;20128;-60
2022/01/24 07:55:22;;;;;;;21.48;14.05;;;5.50;99.90;;;;;;5008002;28;20494;-60
2022/01/24 07:57:48;;;;;;;15.40;9.93;;;5.50;99.90;;;;;;4988326;28;20406;-60
2022/01/24 08:00:15;;;;;;;19.75;12.77;;;5.60;99.90;;;;;;5019535;27;20038;-59
2022/01/24 08:02:41;;;;;;;23.25;14.27;;;5.50;99.90;;;;;;5019496;27;20381;-59
2022/01/24 08:05:09;;;;;;;21.60;13.95;;;5.50;99.90;;;;;;5008129;28;20092;-60
2022/01/24 08:07:36;;;;;;;20.10;13.20;;;5.60;99.90;;;;;;5018402;27;20041;-60
2022/01/24 08:10:02;;;;;;;20.65;13.20;;;5.50;99.90;;;;;;4997095;28;20513;-60
2022/01/24 08:12:28;;;;;;;23.70;14.85;;;5.60;99.90;;;;;;4999767;28;20042;-58
2022/01/24 08:14:54;;;;;;;21.48;14.02;;;5.60;99.90;;;;;;4985475;28;20046;-59
2022/01/24 08:17:20;;;;;;;18.40;11.80;;;5.60;99.90;;;;;;4994172;28;21124;-60
2022/01/24 08:19:46;;;;;;;22.65;14.95;;;5.50;99.90;;;;;;4988977;28;22195;-60
2022/01/24 08:22:13;;;;;;;21.33;13.70;;;5.60;99.90;;;;;;4994966;28;20053;-59
2022/01/24 08:24:39;;;;;;;24.20;15.05;;;5.60;99.90;;;;;;5006781;28;20045;-59
2022/01/24 08:27:05;;;;;;;20.27;13.80;;;5.60;99.90;;;;;;4995028;28;20045;-59
2022/01/24 08:29:31;;;;;;;16.42;10.82;;;5.60;99.90;;;;;;4982301;28;20046;-60
2022/01/24 08:31:57;;;;;;;17.95;11.88;;;5.60;99.90;;;;;;5014242;28;20279;-60
2022/01/24 08:34:22;;;;;;;21.98;14.57;;;5.60;99.90;;;;;;5016172;28;20036;-60
2022/01/24 08:36:48;;;;;;;19.23;12.65;;;5.60;99.90;;;;;;5021081;28;20042;-60
2022/01/24 08:39:14;;;;;;;18.00;11.85;;;5.60;99.90;;;;;;5000813;28;20038;-61
2022/01/24 08:41:58;;;;;;;26.85;14.95;;;5.60;99.90;;;;;;4992683;28;20061;-59
2022/01/24 08:47:18;;;;;;;24.60;15.95;;;5.60;99.90;;;;;;4985105;28;20045;-60
2022/01/24 08:49:43;;;;;;;24.65;14.80;;;5.60;99.90;;;;;;4990326;28;20057;-60
2022/01/24 08:52:09;;;;;;;24.58;15.55;;;5.60;99.90;;;;;;5012870;28;20030;-60
2022/01/24 08:54:35;;;;;;;25.20;16.20;;;5.60;99.90;;;;;;5019039;28;20075;-60
2022/01/24 08:57:02;;;;;;;22.55;14.95;;;5.60;99.90;;;;;;5001582;28;20052;-60
2022/01/24 08:59:28;;;;;;;25.83;16.42;;;5.70;99.90;;;;;;5019191;28;20106;-60
2022/01/24 09:01:54;;;;;;;20.38;14.02;;;5.60;99.90;;;;;;4996883;28;20057;-59
2022/01/24 09:04:20;;;;;;;22.98;15.50;;;5.70;99.90;;;;;;5001387;28;20098;-60
2022/01/24 09:06:45;;;;;;;23.85;15.00;;;5.70;99.90;;;;;;5014342;28;20481;-59
2022/01/24 09:09:13;;;;;;;26.10;15.50;;;5.70;99.90;;;;;;5013002;28;20041;-59
2022/01/24 09:11:38;;;;;;;27.58;17.98;;;5.70;99.90;;;;;;5004015;28;20170;-59
2022/01/24 09:14:06;;;;;;;27.00;16.40;;;5.70;99.90;;;;;;4986261;28;20527;-59
2022/01/24 09:16:33;;;;;;;25.75;16.30;;;5.70;99.90;;;;;;4999654;28;20385;-59
2022/01/24 09:18:59;;;;;;;23.38;15.15;;;5.70;99.90;;;;;;4996337;28;20074;-59
2022/01/24 09:21:27;;;;;;;26.58;17.33;;;5.70;99.90;;;;;;5019725;28;20149;-60
2022/01/24 09:23:53;;;;;;;27.27;16.90;;;5.70;99.90;;;;;;4982993;28;20090;-58
2022/01/24 09:26:19;;;;;;;27.63;16.55;;;5.70;99.90;;;;;;5005122;28;20037;-59
2022/01/24 09:28:46;;;;;;;25.60;17.15;;;5.70;99.90;;;;;;4986860;28;20323;-59
2022/01/24 09:31:12;;;;;;;26.80;17.08;;;5.80;99.90;;;;;;4999619;27;20392;-59
2022/01/24 09:33:38;;;;;;;27.65;18.17;;;5.80;99.90;;;;;;5027933;28;20079;-58
2022/01/24 09:36:04;;;;;;;27.55;17.95;;;5.70;99.90;;;;;;5019699;27;20092;-58
2022/01/24 09:38:32;;;;;;;28.05;17.20;;;5.70;99.90;;;;;;5011636;28;20517;-59
2022/01/24 09:41:05;;;;;;;26.98;17.05;;;5.70;99.90;;;;;;4993672;28;20046;-59
2022/01/24 09:43:32;;;;;;;26.92;17.63;;;5.80;99.90;;;;;;5001777;28;20124;-58
2022/01/24 09:45:58;;;;;;;27.75;16.85;;;5.80;99.90;;;;;;4997577;28;20140;-59
2022/01/24 09:48:24;;;;;;;29.38;18.48;;;5.80;99.90;;;;;;5004301;28;20105;-58
2022/01/24 09:50:52;;;;;;;24.52;17.00;;;5.80;99.90;;;;;;5004978;28;20037;-59
2022/01/24 09:53:23;;;;;;;26.08;17.10;;;5.80;99.90;;;;;;5010990;28;20102;-59
2022/01/24 09:55:49;;;;;;;28.70;19.05;;;5.80;99.90;;;;;;4986614;28;20049;-59
2022/01/24 09:58:15;;;;;;;29.20;17.55;;;5.90;99.90;;;;;;4994437;28;20142;-60
2022/01/24 10:00:42;;;;;;;27.58;17.98;;;5.90;99.90;;;;;;5008888;28;20831;-61
2022/01/24 10:03:09;;;;;;;31.17;19.80;;;5.80;99.90;;;;;;5004179;28;20137;-61
2022/01/24 10:05:37;;;;;;;24.98;16.77;;;5.90;99.90;;;;;;5008747;28;20506;-63
2022/01/24 10:08:06;;;;;;;30.83;17.90;;;5.90;99.90;;;;;;5009743;28;20205;-60
2022/01/24 10:10:39;;;;;;;27.70;18.75;;;5.90;99.90;;;;;;4996889;28;20124;-59
2022/01/24 10:16:25;;;;;;;29.50;19.48;;;5.90;99.90;;;;;;5015369;28;20038;-58
2022/01/24 10:19:10;;;;;;;30.70;19.08;;;5.90;99.90;;;;;;4988336;28;20494;-60
2022/01/24 10:21:46;;;;;;;29.33;18.88;;;5.90;99.90;;;;;;4992944;28;20579;-61
2022/01/24 10:24:33;;;;;;;28.77;18.00;;;5.90;99.90;;;;;;4989293;28;20126;-59
2022/01/24 10:27:08;;;;;;;32.20;20.40;;;5.90;99.90;;;;;;4996773;28;20518;-63
2022/01/24 10:29:39;;;;;;;28.27;18.63;;;5.90;99.90;;;;;;4991404;28;20445;-59
2022/01/24 10:32:05;;;;;;;31.27;20.42;;;5.90;99.90;;;;;;5011727;28;20171;-60
2022/01/24 10:34:36;;;;;;;29.70;18.88;;;6.00;99.90;;;;;;5007475;28;20400;-59
2022/01/24 10:37:03;;;;;;;27.92;18.05;;;6.00;99.90;;;;;;4991902;28;20057;-62
2022/01/24 10:45:11;;;;;;;27.90;17.52;;;6.00;99.90;;;;;;4997366;28;20534;-63
2022/01/24 10:47:44;;;;;;;25.83;16.35;;;6.00;99.90;;;;;;4977604;28;20047;-64
2022/01/24 10:50:11;;;;;;;28.05;18.75;;;6.00;99.90;;;;;;4999317;28;20034;-66
2022/01/24 10:52:38;;;;;;;26.25;18.95;;;6.10;99.90;;;;;;4998594;28;20502;-67
2022/01/24 10:55:15;;;;;;;28.42;18.58;;;6.10;99.90;;;;;;4996843;28;20120;-64
2022/01/24 10:57:42;;;;;;;28.95;19.23;;;6.00;99.90;;;;;;4998791;28;20511;-63
2022/01/24 11:00:16;;;;;;;25.90;18.73;;;6.10;99.90;;;;;;4990218;28;20073;-64
2022/01/24 11:02:44;;;;;;;25.13;17.77;;;6.10;99.90;;;;;;5009469;28;20037;-66
2022/01/24 11:05:10;;;;;;;30.00;19.08;;;6.10;99.90;;;;;;4992629;28;20038;-65
2022/01/24 11:07:53;;;;;;;30.35;20.15;;;6.00;99.90;;;;;;5015811;28;20528;-66
2022/01/24 11:10:20;;;;;;;29.48;18.58;;;6.10;99.90;;;;;;4976966;28;20072;-65
2022/01/24 11:12:45;;;;;;;30.75;20.85;;;6.10;99.90;;;;;;4995999;28;20041;-67
2022/01/24 11:15:11;;;;;;;29.65;19.42;;;6.10;99.90;;;;;;4980946;28;20395;-66
2022/01/24 11:17:38;;;;;;;28.73;19.50;;;6.10;99.90;;;;;;4981410;28;20044;-66
2022/01/24 11:20:05;;;;;;;28.63;19.25;;;6.10;99.90;;;;;;4979343;28;20041;-66
2022/01/24 11:22:34;;;;;;;25.55;17.52;;;6.10;99.90;;;;;;4982294;28;20134;-65
2022/01/24 11:25:04;;;;;;;32.40;20.08;;;6.10;99.90;;;;;;4993402;28;20403;-65
2022/01/24 11:27:32;;;;;;;30.85;20.35;;;6.10;99.90;;;;;;5008498;27;20042;-67
2022/01/24 11:30:02;;;;;;;29.35;18.73;;;6.10;99.90;;;;;;4973756;28;20531;-64
2022/01/24 11:32:30;;;;;;;23.48;15.52;;;6.10;99.90;;;;;;4981727;28;20121;-65
2022/01/24 11:34:57;;;;;;;26.20;18.48;;;6.10;99.90;;;;;;4974697;28;20174;-65
2022/01/24 11:37:42;;;;;;;31.48;20.90;;;6.20;99.90;;;;;;4986078;28;20046;-64
2022/01/24 11:40:18;;;;;;;29.95;18.77;;;6.10;99.90;;;;;;4991354;28;20338;-65
2022/01/24 11:42:46;;;;;;;29.20;19.27;;;6.20;99.90;;;;;;4976316;28;20042;-64
2022/01/24 11:45:16;;;;;;;29.40;19.60;;;6.20;99.90;;;;;;4998110;28;20038;-64
2022/01/24 11:47:43;;;;;;;32.03;21.00;;;6.20;99.90;;;;;;4986298;28;20042;-66
2022/01/24 11:50:24;;;;;;;27.95;19.20;;;6.20;99.90;;;;;;4994269;28;20206;-64
2022/01/24 11:52:52;;;;;;;32.45;19.92;;;6.20;99.90;;;;;;4996103;28;20042;-64
2022/01/24 11:55:31;;;;;;;30.15;19.55;;;6.20;99.90;;;;;;5002504;28;20041;-64
2022/01/24 11:58:00;;;;;;;30.55;19.10;;;6.20;99.90;;;;;;5004341;28;20722;-64
2022/01/24 12:00:34;;;;;;;31.08;19.92;;;6.20;99.90;;;;;;4982799;28;20171;-64
2022/01/24 12:03:17;;;;;;;29.25;17.70;;;6.20;99.90;;;;;;4998863;28;20072;-64
2022/01/24 12:05:48;;;;;;;33.05;21.08;;;6.20;99.90;;;;;;4987380;28;20554;-66
2022/01/24 12:08:34;;;;;;;32.97;20.10;;;6.30;99.90;;;;;;4999437;28;20126;-65
2022/01/24 12:11:24;;;;;;;32.85;20.15;;;6.20;99.90;;;;;;4996056;28;20049;-65
2022/01/24 12:14:01;;;;;;;31.98;19.63;;;6.20;99.90;;;;;;5000986;28;20550;-66
2022/01/24 12:16:45;;;;;;;29.92;19.02;;;6.20;99.90;;;;;;4990764;28;20037;-64
2022/01/24 12:19:12;;;;;;;34.53;21.67;;;6.20;99.90;;;;;;4985563;28;20087;-66
2022/01/24 12:21:41;;;;;;;31.15;20.70;;;6.20;99.90;;;;;;4993689;27;20046;-66
2022/01/24 12:24:11;;;;;;;34.22;21.33;;;6.20;99.90;;;;;;4998259;27;20073;-64
2022/01/24 12:26:43;;;;;;;34.08;21.73;;;6.30;99.90;;;;;;4997719;28;20429;-64
2022/01/24 12:29:09;;;;;;;30.95;19.35;;;6.20;99.90;;;;;;4993529;28;20058;-64
2022/01/24 12:31:49;;;;;;;32.10;19.13;;;6.30;99.90;;;;;;4981706;28;20042;-66
2022/01/24 12:34:26;;;;;;;29.80;19.88;;;6.30;99.90;;;;;;4999057;27;20042;-66
2022/01/24 12:37:00;;;;;;;30.83;18.40;;;6.30;99.90;;;;;;5001566;28;20041;-66
2022/01/24 12:39:25;;;;;;;;;;;6.30;99.90;;;;;;4994412;28;20081;-66
2022/01/24 12:41:58;;;;;;;32.97;19.55;;;6.20;99.90;;;;;;5000521;27;19954;-66
2022/01/24 12:47:09;;;;;;;30.88;18.83;;;6.20;99.90;;;;;;4991126;28;20145;-65
2022/01/24 12:49:35;;;;;;;28.73;19.15;;;6.20;99.90;;;;;;4992357;28;20050;-65
2022/01/24 12:52:03;;;;;;;30.98;19.95;;;6.20;99.90;;;;;;4986684;27;20026;-65
2022/01/24 12:54:31;;;;;;;32.70;20.95;;;6.20;99.90;;;;;;4980923;28;20056;-65
2022/01/24 12:57:02;;;;;;;34.55;19.98;;;6.20;99.90;;;;;;4996151;28;20090;-66
2022/01/24 12:59:28;;;;;;;33.00;20.70;;;6.30;99.90;;;;;;4993618;28;20495;-65
2022/01/24 13:01:57;;;;;;;30.65;19.25;;;6.20;99.90;;;;;;5015746;27;20152;-65
2022/01/24 13:04:34;;;;;;;31.58;20.15;;;6.20;99.90;;;;;;4979233;28;20073;-66
2022/01/24 13:07:01;;;;;;;35.17;21.58;;;6.10;99.90;;;;;;5005877;28;20045;-66
2022/01/24 13:09:27;;;;;;;37.42;20.70;;;6.20;99.90;;;;;;4984965;28;20042;-65
2022/01/24 13:11:54;;;;;;;36.60;22.67;;;6.20;99.90;;;;;;4978085;28;20754;-66
2022/01/24 13:14:38;;;;;;;37.20;23.02;;;6.20;99.90;;;;;;4988588;27;20029;-66
2022/01/24 13:22:55;;;;;;;35.83;21.88;;;6.20;99.90;;;;;;4986917;28;20064;-65
2022/01/24 13:25:26;;;;;;;34.92;22.08;;;6.20;99.90;;;;;;4981887;28;21086;-65
2022/01/24 13:27:57;;;;;;;35.22;21.77;;;6.20;99.90;;;;;;4973212;28;20073;-66
2022/01/24 13:30:29;;;;;;;37.47;22.55;;;6.20;99.90;;;;;;4995419;28;20145;-65
2022/01/24 13:32:58;;;;;;;36.03;23.00;;;6.20;99.90;;;;;;4975178;28;20052;-65
2022/01/24 13:35:31;;;;;;;37.17;22.65;;;6.10;99.90;;;;;;4985177;28;20078;-65
2022/01/24 13:38:12;;;;;;;35.77;22.60;;;6.10;99.90;;;;;;4983012;28;20558;-67
2022/01/24 13:41:07;;;;;;;38.78;22.83;;;6.10;99.90;;;;;;4983199;28;20312;-66
2022/01/24 13:43:36;;;;;;;34.83;21.60;;;6.10;99.90;;;;;;4984962;28;20579;-66
2022/01/24 13:46:05;;;;;;;35.83;21.80;;;6.10;99.90;;;;;;4988034;28;20495;-65
2022/01/24 13:48:39;;;;;;;38.15;22.55;;;6.10;99.90;;;;;;5004376;28;20037;-65
2022/01/24 13:51:06;;;;;;;43.17;26.77;;;6.10;99.90;;;;;;5015207;28;20574;-65
2022/01/24 13:53:41;;;;;;;43.50;25.38;;;6.20;99.90;;;;;;5005073;28;20038;-65
2022/01/24 13:56:27;;;;;;;38.35;23.48;;;6.10;99.90;;;;;;5015134;28;20078;-65
2022/01/24 13:58:57;;;;;;;37.17;22.60;;;6.10;99.90;;;;;;4990465;28;20053;-65
2022/01/24 14:01:23;;;;;;;38.40;24.75;;;6.10;99.90;;;;;;5000784;28;20391;-66
2022/01/24 14:03:59;;;;;;;39.92;24.00;;;6.10;99.90;;;;;;4981114;28;20814;-65
2022/01/24 14:06:29;;;;;;;42.95;26.40;;;6.00;99.90;;;;;;4986622;28;20080;-66
2022/01/24 14:09:10;;;;;;;39.20;24.88;;;6.00;99.90;;;;;;4994411;28;20056;-65
2022/01/24 14:11:48;;;;;;;40.05;25.45;;;6.00;99.90;;;;;;4981184;28;20457;-65
2022/01/24 14:14:18;;;;;;;37.42;23.45;;;6.10;99.90;;;;;;4991757;28;20050;-65
2022/01/24 14:17:05;;;;;;;38.50;24.35;;;6.00;99.90;;;;;;5004488;28;20102;-65
2022/01/24 14:19:32;;;;;;;36.92;22.90;;;6.00;99.90;;;;;;4983962;28;20045;-66
2022/01/24 14:22:12;;;;;;;45.28;26.00;;;6.00;99.90;;;;;;4995465;28;20041;-66
2022/01/24 14:24:57;;;;;;;44.00;27.17;;;6.00;99.90;;;;;;4998800;28;20041;-63
2022/01/24 14:27:39;;;;;;;42.88;29.02;;;6.00;99.90;;;;;;4989351;28;20216;-65
2022/01/24 14:30:11;;;;;;;40.83;25.00;;;6.10;99.90;;;;;;4996554;28;20079;-66
2022/01/24 14:32:39;;;;;;;42.92;26.55;;;6.00;99.90;;;;;;4999910;28;20053;-65
2022/01/24 14:35:08;;;;;;;43.58;27.15;;;6.00;99.90;;;;;;4987764;28;20041;-66
2022/01/24 14:37:52;;;;;;;42.90;27.73;;;6.00;99.90;;;;;;5012832;28;20042;-65
2022/01/24 14:40:46;;;;;;;42.17;26.13;;;5.90;99.90;;;;;;4976662;28;20049;-66
2022/01/24 14:46:07;;;;;;;42.13;26.88;;;5.90;99.90;;;;;;5001929;28;20038;-65
2022/01/24 14:48:48;;;;;;;39.53;25.58;;;5.90;99.90;;;;;;4994717;28;20528;-65
2022/01/24 14:51:17;;;;;;;42.60;26.58;;;5.80;99.90;;;;;;4989779;28;21214;-68
2022/01/24 14:53:44;;;;;;;46.03;28.63;;;5.80;99.90;;;;;;5009415;28;20490;-65